Time;durP1;ratioP1;P1;durP2;ratioP2;P2;SDS_P1;SDS_P2;PMS_P1;PMS_P2;Temp;Humidity;BMP_temperature;BMP_pressure;BME280_temperature;BME280_humidity;BME280_pressure;Samples;Min_cycle;Max_cycle;Signal;HPM_P1;HPM_P2
2022/07/19 00:00:20;;;;;;;;;;;26.80;31.20;;;;;;1591824;73;672;-67
2022/07/19 00:02:22;;;;;;;;;;;26.90;31.20;;;;;;1594239;73;1169;-67
2022/07/19 00:04:24;;;;;;;;;;;26.90;31.30;;;;;;1581378;73;689;-66
2022/07/19 00:06:25;;;;;;;;;;;26.80;31.20;;;;;;1591676;73;709;-67
2022/07/19 00:08:27;;;;;;;;;;;26.80;31.20;;;;;;1590600;73;594;-68
2022/07/19 00:10:29;;;;;;;;;;;26.80;31.30;;;;;;1590008;73;1937;-68
2022/07/19 00:12:31;;;;;;;;;;;26.80;31.30;;;;;;1584294;73;654;-68
2022/07/19 00:14:33;;;;;;;;;;;26.80;31.30;;;;;;1590997;73;665;-67
2022/07/19 00:16:35;;;;;;;;;;;26.80;31.30;;;;;;1587816;73;630;-67
2022/07/19 00:18:37;;;;;;;;;;;26.80;31.30;;;;;;1582505;73;671;-67
2022/07/19 00:20:39;;;;;;;;;;;26.80;31.30;;;;;;1583946;73;1125;-67
2022/07/19 00:22:40;;;;;;;;;;;26.90;31.30;;;;;;1583195;73;717;-69
2022/07/19 00:24:42;;;;;;;;;;;26.90;31.30;;;;;;1580693;73;630;-67
2022/07/19 00:26:44;;;;;;;;;;;26.80;31.30;;;;;;1587791;73;623;-69
2022/07/19 00:28:46;;;;;;;;;;;26.80;31.30;;;;;;1586777;73;671;-68
2022/07/19 00:30:48;;;;;;;;;;;26.90;31.30;;;;;;1584919;73;1950;-69
2022/07/19 00:32:50;;;;;;;;;;;26.80;31.30;;;;;;1586161;73;1646;-68
2022/07/19 00:34:52;;;;;;;;;;;26.90;31.30;;;;;;1585353;73;782;-68
2022/07/19 00:36:53;;;;;;;;;;;26.80;31.30;;;;;;1585967;73;593;-69
2022/07/19 00:38:55;;;;;;;;;;;26.90;31.40;;;;;;1591335;73;693;-70
2022/07/19 00:40:57;;;;;;;;;;;26.80;31.30;;;;;;1585049;73;1140;-69
2022/07/19 00:42:59;;;;;;;;;;;26.90;31.40;;;;;;1589770;73;659;-70
2022/07/19 00:45:01;;;;;;;;;;;26.80;31.50;;;;;;1593500;73;664;-69
2022/07/19 00:47:03;;;;;;;;;;;26.90;31.50;;;;;;1579597;73;656;-69
2022/07/19 00:49:05;;;;;;;;;;;26.80;31.40;;;;;;1588202;73;735;-70
2022/07/19 00:51:07;;;;;;;;;;;26.80;31.50;;;;;;1590980;73;1947;-69
2022/07/19 00:53:09;;;;;;;;;;;26.80;31.50;;;;;;1592561;73;876;-70
2022/07/19 00:55:11;;;;;;;;;;;26.70;31.50;;;;;;1591259;73;697;-68
2022/07/19 00:57:13;;;;;;;;;;;26.80;31.50;;;;;;1587992;73;626;-68
2022/07/19 00:59:15;;;;;;;;;;;26.70;31.50;;;;;;1587225;73;631;-68
2022/07/19 01:01:17;;;;;;;;;;;26.80;31.50;;;;;;1587745;73;1131;-69
2022/07/19 01:03:18;;;;;;;;;;;26.80;31.60;;;;;;1573987;74;713;-69
2022/07/19 01:05:20;;;;;;;;;;;26.80;31.60;;;;;;1589231;73;610;-69
2022/07/19 01:07:22;;;;;;;;;;;26.70;31.60;;;;;;1592127;73;629;-69
2022/07/19 01:09:24;;;;;;;;;;;26.80;31.70;;;;;;1596233;73;713;-69
2022/07/19 01:11:26;;;;;;;;;;;26.70;31.70;;;;;;1592479;73;1919;-69
2022/07/19 01:13:28;;;;;;;;;;;26.70;31.60;;;;;;1587540;73;620;-68
2022/07/19 01:15:30;;;;;;;;;;;26.70;31.70;;;;;;1589135;73;668;-67
2022/07/19 01:17:32;;;;;;;;;;;26.70;31.60;;;;;;1591412;73;630;-67
2022/07/19 01:19:33;;;;;;;;;;;26.80;31.80;;;;;;1585462;73;656;-67
2022/07/19 01:21:35;;;;;;;;;;;26.80;31.70;;;;;;1588984;73;1119;-67
2022/07/19 01:23:37;;;;;;;;;;;26.70;31.70;;;;;;1591993;73;655;-69
2022/07/19 01:25:39;;;;;;;;;;;26.70;31.70;;;;;;1579574;73;669;-68
2022/07/19 01:27:41;;;;;;;;;;;26.80;31.80;;;;;;1593683;73;1469;-67
2022/07/19 01:29:43;;;;;;;;;;;26.80;31.80;;;;;;1581438;73;657;-68
2022/07/19 01:31:45;;;;;;;;;;;26.80;31.80;;;;;;1589623;73;1945;-70
2022/07/19 01:33:47;;;;;;;;;;;26.80;31.70;;;;;;1590020;73;652;-70
2022/07/19 01:35:49;;;;;;;;;;;26.80;31.70;;;;;;1592261;73;790;-70
2022/07/19 01:37:51;;;;;;;;;;;26.80;31.70;;;;;;1582628;73;643;-69
2022/07/19 01:39:56;;;;;;;;;;;26.70;31.70;;;;;;1590565;73;635;-69
2022/07/19 01:41:57;;;;;;;;;;;26.70;31.60;;;;;;1588017;73;1612;-69
2022/07/19 01:43:58;;;;;;;;;;;26.70;31.70;;;;;;1587066;73;672;-69
2022/07/19 01:46:00;;;;;;;;;;;26.80;31.70;;;;;;1590700;73;643;-68
2022/07/19 01:48:02;;;;;;;;;;;26.70;31.80;;;;;;1594341;73;766;-69
2022/07/19 01:50:05;;;;;;;;;;;26.70;31.80;;;;;;1582893;73;588;-70
2022/07/19 01:52:07;;;;;;;;;;;26.70;31.80;;;;;;1589959;73;1937;-70
2022/07/19 01:54:09;;;;;;;;;;;26.70;31.80;;;;;;1592728;73;644;-70
2022/07/19 01:56:11;;;;;;;;;;;26.70;31.80;;;;;;1587741;73;664;-70
2022/07/19 01:58:12;;;;;;;;;;;26.70;31.90;;;;;;1584744;73;645;-69
2022/07/19 02:00:14;;;;;;;;;;;26.70;31.90;;;;;;1592637;73;679;-69
2022/07/19 02:02:16;;;;;;;;;;;26.70;31.90;;;;;;1594478;73;1118;-69
2022/07/19 02:04:18;;;;;;;;;;;26.70;32.00;;;;;;1590274;73;662;-69
2022/07/19 02:06:21;;;;;;;;;;;26.70;31.90;;;;;;1590475;73;602;-70
2022/07/19 02:08:24;;;;;;;;;;;26.70;32.00;;;;;;1597401;73;675;-69
2022/07/19 02:10:26;;;;;;;;;;;26.70;32.00;;;;;;1592708;73;1131;-70
2022/07/19 02:12:28;;;;;;;;;;;26.70;32.10;;;;;;1583840;73;1955;-71
2022/07/19 02:14:30;;;;;;;;;;;26.70;32.10;;;;;;1579516;73;649;-71
2022/07/19 02:16:32;;;;;;;;;;;26.70;32.10;;;;;;1591792;73;655;-71
2022/07/19 02:18:34;;;;;;;;;;;26.70;32.10;;;;;;1589948;73;664;-71
2022/07/19 02:20:36;;;;;;;;;;;26.70;32.10;;;;;;1593156;73;1157;-71
2022/07/19 02:22:38;;;;;;;;;;;26.70;32.10;;;;;;1583858;73;706;-65
2022/07/19 02:24:42;;;;;;;;;;;26.70;32.10;;;;;;1596436;73;1448;-65
2022/07/19 02:26:43;;;;;;;;;;;26.70;32.20;;;;;;1591623;73;1642;-65
2022/07/19 02:28:45;;;;;;;;;;;26.70;32.30;;;;;;1590337;73;653;-64
2022/07/19 02:30:47;;;;;;;;;;;26.70;32.30;;;;;;1582142;73;1163;-65
2022/07/19 02:32:49;;;;;;;;;;;26.70;32.30;;;;;;1586524;73;1925;-65
2022/07/19 02:34:51;;;;;;;;;;;26.70;32.30;;;;;;1587097;73;672;-66
2022/07/19 02:36:53;;;;;;;;;;;26.70;32.30;;;;;;1590099;73;679;-65
2022/07/19 02:38:55;;;;;;;;;;;26.70;32.30;;;;;;1592608;73;730;-65
2022/07/19 02:40:57;;;;;;;;;;;26.70;32.30;;;;;;1591324;73;1133;-64
2022/07/19 02:42:59;;;;;;;;;;;26.70;32.30;;;;;;1591317;73;630;-65
2022/07/19 02:45:01;;;;;;;;;;;26.70;32.30;;;;;;1593976;73;920;-65
2022/07/19 02:47:03;;;;;;;;;;;26.70;32.40;;;;;;1579037;73;696;-67
2022/07/19 02:49:05;;;;;;;;;;;26.70;32.50;;;;;;1584140;73;681;-67
2022/07/19 02:51:08;;;;;;;;;;;26.70;32.50;;;;;;1580999;73;1131;-68
2022/07/19 02:53:10;;;;;;;;;;;26.70;32.50;;;;;;1583116;73;1949;-67
2022/07/19 02:55:12;;;;;;;;;;;26.70;32.60;;;;;;1591518;73;583;-67
2022/07/19 02:57:14;;;;;;;;;;;26.70;32.60;;;;;;1599315;73;603;-67
2022/07/19 02:59:16;;;;;;;;;;;26.70;32.60;;;;;;1590465;73;685;-67
2022/07/19 03:01:17;;;;;;;;;;;26.70;32.60;;;;;;1601103;73;1141;-67
2022/07/19 03:05:39;;;;;;;;;;;26.70;32.60;;;;;;1588625;73;643;-67
2022/07/19 03:07:41;;;;;;;;;;;26.70;32.60;;;;;;1595237;73;657;-67
2022/07/19 03:09:43;;;;;;;;;;;26.70;32.70;;;;;;1590841;73;744;-67
2022/07/19 03:11:45;;;;;;;;;;;26.70;32.60;;;;;;1594840;72;1925;-66
2022/07/19 03:13:47;;;;;;;;;;;26.70;32.60;;;;;;1596126;73;648;-67
2022/07/19 03:15:49;;;;;;;;;;;26.70;32.70;;;;;;1578858;73;661;-67
2022/07/19 03:17:51;;;;;;;;;;;26.70;32.60;;;;;;1588684;73;666;-67
2022/07/19 03:19:53;;;;;;;;;;;26.70;32.70;;;;;;1582936;73;1503;-66
2022/07/19 03:21:54;;;;;;;;;;;26.70;32.70;;;;;;1585220;73;1125;-67
2022/07/19 03:23:56;;;;;;;;;;;26.70;32.70;;;;;;1584160;73;658;-67
2022/07/19 03:25:58;;;;;;;;;;;26.80;32.70;;;;;;1591963;73;679;-66
2022/07/19 03:28:00;;;;;;;;;;;26.70;32.80;;;;;;1590357;73;649;-67
2022/07/19 03:30:02;;;;;;;;;;;26.70;32.80;;;;;;1590926;73;653;-67
2022/07/19 03:32:04;;;;;;;;;;;26.80;32.80;;;;;;1595216;73;1957;-67
2022/07/19 03:34:06;;;;;;;;;;;26.70;32.80;;;;;;1591019;73;678;-67
2022/07/19 03:36:08;;;;;;;;;;;26.70;32.80;;;;;;1587984;73;696;-67
2022/07/19 03:38:10;;;;;;;;;;;26.70;32.80;;;;;;1587573;73;645;-66
2022/07/19 03:40:12;;;;;;;;;;;26.70;32.80;;;;;;1584597;73;613;-67
2022/07/19 03:42:14;;;;;;;;;;;26.80;32.80;;;;;;1602474;73;1110;-66
2022/07/19 03:44:16;;;;;;;;;;;26.70;32.90;;;;;;1592292;73;642;-66
2022/07/19 03:46:20;;;;;;;;;;;26.70;32.90;;;;;;1592620;73;726;-66
2022/07/19 03:48:21;;;;;;;;;;;26.70;33.00;;;;;;1586682;73;1642;-66
2022/07/19 03:50:23;;;;;;;;;;;26.70;33.00;;;;;;1582934;73;676;-67
2022/07/19 03:52:25;;;;;;;;;;;26.70;33.00;;;;;;1587010;73;1957;-66
2022/07/19 03:54:27;;;;;;;;;;;26.70;33.00;;;;;;1584934;73;701;-67
2022/07/19 03:56:29;;;;;;;;;;;26.70;33.00;;;;;;1590235;73;655;-66
2022/07/19 03:58:31;;;;;;;;;;;26.70;33.10;;;;;;1587117;73;858;-65
2022/07/19 04:00:33;;;;;;;;;;;26.70;33.10;;;;;;1592735;73;1130;-65
2022/07/19 04:02:35;;;;;;;;;;;26.70;33.10;;;;;;1588146;73;640;-65
2022/07/19 04:04:36;;;;;;;;;;;26.80;33.10;;;;;;1583497;73;629;-65
2022/07/19 04:06:38;;;;;;;;;;;26.70;33.10;;;;;;1576612;73;700;-67
2022/07/19 04:08:40;;;;;;;;;;;26.80;33.10;;;;;;1591693;73;686;-67
2022/07/19 04:10:42;;;;;;;;;;;26.70;33.10;;;;;;1593633;72;1108;-67
2022/07/19 04:12:44;;;;;;;;;;;26.80;33.10;;;;;;1586520;73;1953;-68
2022/07/19 04:14:46;;;;;;;;;;;26.70;33.20;;;;;;1593924;73;733;-67
2022/07/19 04:16:48;;;;;;;;;;;26.70;33.20;;;;;;1588477;73;1542;-67
2022/07/19 04:18:50;;;;;;;;;;;26.70;33.20;;;;;;1591422;73;860;-67
2022/07/19 04:20:51;;;;;;;;;;;26.70;33.20;;;;;;1588851;73;1104;-66
2022/07/19 04:22:53;;;;;;;;;;;26.80;33.20;;;;;;1580343;73;645;-67
2022/07/19 04:24:55;;;;;;;;;;;26.70;33.30;;;;;;1587001;73;709;-66
2022/07/19 04:26:57;;;;;;;;;;;26.70;33.40;;;;;;1590123;73;701;-67
2022/07/19 04:28:59;;;;;;;;;;;26.70;33.30;;;;;;1588953;73;663;-69
2022/07/19 04:31:01;;;;;;;;;;;26.80;33.40;;;;;;1584914;73;1179;-69
2022/07/19 04:33:03;;;;;;;;;;;26.70;33.30;;;;;;1578397;73;1945;-68
2022/07/19 04:35:07;;;;;;;;;;;26.70;33.40;;;;;;1578781;73;653;-70
2022/07/19 04:37:08;;;;;;;;;;;26.70;33.30;;;;;;1594870;73;722;-69
2022/07/19 04:39:10;;;;;;;;;;;26.70;33.40;;;;;;1597414;73;621;-68
2022/07/19 04:41:12;;;;;;;;;;;26.70;33.40;;;;;;1590672;73;1161;-69
2022/07/19 04:43:14;;;;;;;;;;;26.70;33.40;;;;;;1590960;73;765;-70
2022/07/19 04:45:16;;;;;;;;;;;26.70;33.50;;;;;;1569739;74;621;-69
2022/07/19 04:47:18;;;;;;;;;;;26.70;33.50;;;;;;1588894;73;791;-69
2022/07/19 04:49:20;;;;;;;;;;;26.70;33.70;;;;;;1588267;73;642;-70
2022/07/19 04:51:22;;;;;;;;;;;26.70;33.70;;;;;;1586210;73;1151;-70
2022/07/19 04:53:23;;;;;;;;;;;26.70;33.60;;;;;;1586638;73;1953;-69
2022/07/19 04:55:25;;;;;;;;;;;26.70;33.70;;;;;;1590930;73;645;-69
2022/07/19 04:57:27;;;;;;;;;;;26.60;33.80;;;;;;1583012;73;640;-69
2022/07/19 04:59:29;;;;;;;;;;;26.60;33.90;;;;;;1596419;73;643;-69
2022/07/19 05:01:31;;;;;;;;;;;26.70;33.90;;;;;;1589692;73;1135;-68
2022/07/19 05:03:33;;;;;;;;;;;26.70;33.90;;;;;;1591103;73;652;-69
2022/07/19 05:05:35;;;;;;;;;;;26.70;33.90;;;;;;1584766;73;699;-68
2022/07/19 05:07:37;;;;;;;;;;;26.70;33.90;;;;;;1589191;73;634;-69
2022/07/19 05:09:39;;;;;;;;;;;26.70;34.00;;;;;;1595213;73;663;-68
2022/07/19 05:11:40;;;;;;;;;;;26.80;34.30;;;;;;1595557;73;1163;-68
2022/07/19 05:13:42;;;;;;;;;;;26.70;34.10;;;;;;1591160;73;1957;-68
2022/07/19 05:15:44;;;;;;;;;;;26.80;34.20;;;;;;1587028;73;663;-68
2022/07/19 05:17:46;;;;;;;;;;;26.70;34.10;;;;;;1586546;73;644;-68
2022/07/19 05:19:48;;;;;;;;;;;26.80;34.20;;;;;;1589683;73;663;-68
2022/07/19 05:21:50;;;;;;;;;;;26.70;34.20;;;;;;1599279;73;1134;-68
2022/07/19 05:23:52;;;;;;;;;;;26.70;34.30;;;;;;1583666;73;642;-68
2022/07/19 05:25:54;;;;;;;;;;;26.70;34.30;;;;;;1586597;73;681;-66
2022/07/19 05:27:56;;;;;;;;;;;26.70;34.40;;;;;;1588053;73;858;-68
2022/07/19 05:29:58;;;;;;;;;;;26.70;34.70;;;;;;1599854;73;673;-67
2022/07/19 05:32:00;;;;;;;;;;;26.90;34.40;;;;;;1591350;73;1106;-67
2022/07/19 05:34:02;;;;;;;;;;;26.90;34.50;;;;;;1579486;73;1938;-69
2022/07/19 05:36:04;;;;;;;;;;;27.00;35.20;;;;;;1584767;73;626;-68
2022/07/19 05:38:06;;;;;;;;;;;27.10;35.40;;;;;;1588656;73;688;-68
2022/07/19 05:40:08;;;;;;;;;;;27.10;35.40;;;;;;1588330;73;638;-68
2022/07/19 05:42:10;;;;;;;;;;;27.10;35.50;;;;;;1586220;73;1129;-68
2022/07/19 05:44:11;;;;;;;;;;;27.10;35.80;;;;;;1591399;73;642;-69
2022/07/19 05:46:13;;;;;;;;;;;27.10;35.70;;;;;;1591648;73;641;-69
2022/07/19 05:48:15;;;;;;;;;;;27.10;35.80;;;;;;1589094;73;621;-68
2022/07/19 05:50:17;;;;;;;;;;;27.10;35.90;;;;;;1584830;73;637;-66
2022/07/19 05:52:19;;;;;;;;;;;27.20;35.70;;;;;;1585457;73;1096;-69
2022/07/19 05:54:21;;;;;;;;;;;27.30;35.70;;;;;;1589035;73;694;-69
2022/07/19 05:56:23;;;;;;;;;;;27.30;35.60;;;;;;1586753;73;640;-69
2022/07/19 05:58:24;;;;;;;;;;;27.40;35.50;;;;;;1587679;73;638;-68
2022/07/19 06:00:26;;;;;;;;;;;27.40;35.40;;;;;;1589988;73;1129;-68
2022/07/19 06:02:28;;;;;;;;;;;27.40;35.30;;;;;;1593958;73;658;-69
2022/07/19 06:04:30;;;;;;;;;;;27.40;35.10;;;;;;1585256;73;646;-69
2022/07/19 06:06:33;;;;;;;;;;;27.50;35.00;;;;;;1591863;73;677;-69
2022/07/19 06:08:35;;;;;;;;;;;27.50;34.80;;;;;;1599599;73;1460;-69
2022/07/19 06:10:37;;;;;;;;;;;27.60;34.70;;;;;;1588709;73;1150;-69
2022/07/19 06:12:38;;;;;;;;;;;27.60;34.50;;;;;;1590224;73;1943;-70
2022/07/19 06:14:40;;;;;;;;;;;27.60;34.40;;;;;;1593652;73;657;-69
2022/07/19 06:16:42;;;;;;;;;;;27.60;34.40;;;;;;1587739;73;652;-68
2022/07/19 06:18:44;;;;;;;;;;;27.60;34.30;;;;;;1580156;73;652;-68
2022/07/19 06:20:46;;;;;;;;;;;27.70;34.20;;;;;;1583237;73;1154;-68
2022/07/19 06:22:48;;;;;;;;;;;27.70;34.20;;;;;;1584206;73;805;-68
2022/07/19 06:24:50;;;;;;;;;;;27.70;34.00;;;;;;1572058;73;671;-69
2022/07/19 06:26:52;;;;;;;;;;;27.70;33.90;;;;;;1585392;73;722;-69
2022/07/19 06:28:54;;;;;;;;;;;27.70;33.80;;;;;;1585182;73;694;-69
2022/07/19 06:33:19;;;;;;;;;;;27.80;33.70;;;;;;1548578;74;1894;-66
2022/07/19 06:35:20;;;;;;;;;;;27.80;33.30;;;;;;1557431;74;632;-66
2022/07/19 06:37:22;;;;;;;;;;;27.80;33.00;;;;;;1562726;74;698;-65
2022/07/19 06:39:24;;;;;;;;;;;27.90;33.10;;;;;;1560467;74;674;-65
2022/07/19 06:41:26;;;;;;;;;;;27.90;32.90;;;;;;1553127;74;1203;-66
2022/07/19 06:43:28;;;;;;;;;;;27.90;32.80;;;;;;1532195;76;692;-63
2022/07/19 06:45:30;;;;;;;;;;;28.00;33.30;;;;;;1532050;76;661;-65
2022/07/19 06:47:36;;;;;;;;;;;28.00;33.30;;;;;;1529636;76;668;-64
2022/07/19 06:49:35;;;;;;;;;;;28.00;33.30;;;;;;1521892;76;1121;-64
2022/07/19 06:51:37;;;;;;;;;;;28.00;33.10;;;;;;1533018;76;1115;-64
2022/07/19 06:53:39;;;;;;;;;;;28.10;33.10;;;;;;1528777;76;1936;-65
2022/07/19 06:55:41;;;;;;;;;;;28.20;32.90;;;;;;1534423;76;613;-64
2022/07/19 06:57:43;;;;;;;;;;;28.20;32.70;;;;;;1530514;76;705;-64
2022/07/19 06:59:45;;;;;;;;;;;28.20;32.60;;;;;;1526975;76;726;-64
2022/07/19 07:01:47;;;;;;;;;;;28.30;32.40;;;;;;1520392;76;1147;-64
2022/07/19 07:03:48;;;;;;;;;;;28.20;32.40;;;;;;1518894;76;696;-64
2022/07/19 07:05:50;;;;;;;;;;;28.30;32.40;;;;;;1526999;76;1503;-64
2022/07/19 07:07:54;;;;;;;;;;;28.30;32.30;;;;;;1548030;76;628;-64
2022/07/19 07:09:55;;;;;;;;;;;28.30;32.30;;;;;;1536891;76;707;-64
2022/07/19 07:11:57;;;;;;;;;;;28.40;32.20;;;;;;1544887;76;1126;-64
2022/07/19 07:13:59;;;;;;;;;;;28.40;32.10;;;;;;1523440;76;1933;-64
2022/07/19 07:16:01;;;;;;;;;;;28.40;32.10;;;;;;1526683;76;700;-64
2022/07/19 07:18:03;;;;;;;;;;;28.50;32.00;;;;;;1532940;76;691;-63
2022/07/19 07:20:05;;;;;;;;;;;28.40;31.90;;;;;;1532280;76;685;-63
2022/07/19 07:22:07;;;;;;;;;;;28.50;31.80;;;;;;1530638;76;1136;-64
2022/07/19 07:24:09;;;;;;;;;;;28.60;31.80;;;;;;1546974;76;698;-64
2022/07/19 07:26:11;;;;;;;;;;;28.50;31.80;;;;;;1532447;76;713;-65
2022/07/19 07:28:13;;;;;;;;;;;28.50;31.80;;;;;;1535262;76;628;-65
2022/07/19 07:30:15;;;;;;;;;;;28.50;31.80;;;;;;1537622;76;672;-65
2022/07/19 07:32:17;;;;;;;;;;;28.50;31.80;;;;;;1532083;76;1128;-65
2022/07/19 07:34:19;;;;;;;;;;;28.50;31.70;;;;;;1536467;76;1937;-65
2022/07/19 07:36:21;;;;;;;;;;;28.60;31.60;;;;;;1536952;76;703;-65
2022/07/19 07:38:22;;;;;;;;;;;28.50;31.60;;;;;;1528114;76;593;-65
2022/07/19 07:40:24;;;;;;;;;;;28.40;31.70;;;;;;1526047;76;659;-64
2022/07/19 07:42:26;;;;;;;;;;;28.40;31.50;;;;;;1525633;76;1164;-65
2022/07/19 07:44:28;;;;;;;;;;;28.40;30.90;;;;;;1524693;76;636;-65
2022/07/19 07:46:30;;;;;;;;;;;28.30;30.70;;;;;;1536886;76;582;-64
2022/07/19 07:48:32;;;;;;;;;;;28.20;31.40;;;;;;1537951;76;698;-64
2022/07/19 07:50:34;;;;;;;;;;;28.30;31.60;;;;;;1531733;76;731;-65
2022/07/19 07:52:36;;;;;;;;;;;28.30;30.80;;;;;;1524827;76;1148;-65
2022/07/19 07:54:38;;;;;;;;;;;28.20;31.40;;;;;;1542157;76;1938;-65
2022/07/19 07:56:40;;;;;;;;;;;28.30;30.50;;;;;;1551396;76;661;-65
2022/07/19 07:58:42;;;;;;;;;;;28.30;31.30;;;;;;1542440;76;697;-63
2022/07/19 08:00:43;;;;;;;;;;;28.30;31.10;;;;;;1532428;76;640;-65
2022/07/19 08:02:46;;;;;;;;;;;28.30;31.10;;;;;;1531311;76;1575;-64
2022/07/19 08:04:47;;;;;;;;;;;28.30;30.20;;;;;;1533949;76;616;-64
2022/07/19 08:06:49;;;;;;;;;;;28.30;30.60;;;;;;1527334;76;721;-65
2022/07/19 08:08:51;;;;;;;;;;;28.20;30.20;;;;;;1526265;76;679;-64
2022/07/19 08:10:53;;;;;;;;;;;28.30;30.00;;;;;;1535640;76;615;-64
2022/07/19 08:12:55;;;;;;;;;;;28.30;31.00;;;;;;1533448;76;1229;-65
2022/07/19 08:14:57;;;;;;;;;;;28.20;30.10;;;;;;1524169;76;1932;-61
2022/07/19 08:16:59;;;;;;;;;;;28.20;29.60;;;;;;1531275;76;638;-64
2022/07/19 08:19:01;;;;;;;;;;;28.20;29.50;;;;;;1532556;76;704;-65
2022/07/19 08:21:03;;;;;;;;;;;28.10;29.20;;;;;;1532199;76;1142;-64
2022/07/19 08:23:05;;;;;;;;;;;28.20;29.20;;;;;;1541335;76;650;-65
2022/07/19 08:25:07;;;;;;;;;;;28.10;30.20;;;;;;1534993;76;800;-65
2022/07/19 08:27:09;;;;;;;;;;;28.20;29.40;;;;;;1534475;76;622;-63
2022/07/19 08:29:11;;;;;;;;;;;28.20;28.90;;;;;;1540164;76;689;-64
2022/07/19 08:31:13;;;;;;;;;;;28.20;29.30;;;;;;1532833;76;1137;-63
2022/07/19 08:33:15;;;;;;;;;;;28.20;29.50;;;;;;1542574;76;679;-64
2022/07/19 08:35:17;;;;;;;;;;;28.10;27.80;;;;;;1525861;76;1941;-63
2022/07/19 08:37:18;;;;;;;;;;;28.10;27.90;;;;;;1535197;76;673;-65
2022/07/19 08:39:20;;;;;;;;;;;28.10;27.60;;;;;;1520264;76;673;-64
2022/07/19 08:41:22;;;;;;;;;;;28.10;27.80;;;;;;1521333;76;1186;-65
2022/07/19 08:43:24;;;;;;;;;;;28.10;28.40;;;;;;1521931;76;650;-64
2022/07/19 08:45:26;;;;;;;;;;;28.00;27.50;;;;;;1540059;76;655;-64
2022/07/19 08:47:28;;;;;;;;;;;28.10;27.70;;;;;;1537154;76;657;-65
2022/07/19 08:49:30;;;;;;;;;;;28.10;28.40;;;;;;1557935;76;626;-65
2022/07/19 08:51:32;;;;;;;;;;;28.10;28.60;;;;;;1539622;74;1176;-65
2022/07/19 08:53:38;;;;;;;;;;;28.10;28.30;;;;;;1555107;76;1937;-66
2022/07/19 08:55:37;;;;;;;;;;;28.10;28.30;;;;;;1529520;76;1227;-65
2022/07/19 08:57:57;;;;;;;;;;;28.10;28.90;;;;;;1535329;76;1494;-65
2022/07/19 08:59:59;;;;;;;;;;;28.10;28.30;;;;;;1531214;76;591;-65
2022/07/19 09:02:01;;;;;;;;;;;28.00;28.20;;;;;;1543830;74;1191;-65
2022/07/19 09:04:06;;;;;;;;;;;28.00;28.20;;;;;;1537001;76;636;-65
2022/07/19 09:06:08;;;;;;;;;;;28.00;28.60;;;;;;1543895;76;636;-65
2022/07/19 09:08:11;;;;;;;;;;;28.00;28.60;;;;;;1544180;76;915;-66
2022/07/19 09:10:16;;;;;;;;;;;28.10;28.00;;;;;;1540623;76;633;-66
2022/07/19 09:12:18;;;;;;;;;;;28.00;28.10;;;;;;1535500;76;1173;-65
2022/07/19 09:14:25;;;;;;;;;;;28.00;27.60;;;;;;1547747;74;1923;-65
2022/07/19 09:16:27;;;;;;;;;;;28.00;27.90;;;;;;1535018;76;831;-66
2022/07/19 09:18:29;;;;;;;;;;;28.00;27.40;;;;;;1539537;76;654;-65
2022/07/19 09:20:31;;;;;;;;;;;28.00;26.80;;;;;;1530946;76;702;-65
2022/07/19 09:22:33;;;;;;;;;;;28.00;27.60;;;;;;1544028;76;1142;-65
2022/07/19 09:24:39;;;;;;;;;;;28.00;27.10;;;;;;1526122;76;724;-65
2022/07/19 09:26:43;;;;;;;;;;;28.00;27.70;;;;;;1531597;76;664;-64
2022/07/19 09:28:44;;;;;;;;;;;28.00;27.60;;;;;;1549061;76;1074;-65
2022/07/19 09:30:47;;;;;;;;;;;28.00;27.20;;;;;;1540579;76;638;-65
2022/07/19 09:32:49;;;;;;;;;;;28.00;27.00;;;;;;1529360;76;1154;-65
2022/07/19 09:34:55;;;;;;;;;;;28.00;28.20;;;;;;1506117;77;1945;-64
2022/07/19 09:37:13;;;;;;;;;;;28.10;27.70;;;;;;1538185;76;668;-66
2022/07/19 09:39:17;;;;;;;;;;;28.10;27.70;;;;;;1524362;76;660;-65
2022/07/19 09:41:19;;;;;;;;;;;28.10;27.60;;;;;;1527659;76;1191;-64
2022/07/19 09:43:22;;;;;;;;;;;28.00;28.10;;;;;;1533788;76;679;-65
2022/07/19 09:45:24;;;;;;;;;;;28.00;27.30;;;;;;1545806;76;701;-65
2022/07/19 09:47:32;;;;;;;;;;;28.00;26.90;;;;;;1534769;75;1236;-64
2022/07/19 09:49:34;;;;;;;;;;;28.00;27.10;;;;;;1543213;76;674;-65
2022/07/19 09:51:37;;;;;;;;;;;28.00;27.50;;;;;;1536036;76;1109;-64
2022/07/19 09:53:39;;;;;;;;;;;28.00;27.40;;;;;;1540578;75;1451;-64
2022/07/19 09:55:41;;;;;;;;;;;28.00;27.10;;;;;;1528877;76;1945;-64
2022/07/19 09:57:44;;;;;;;;;;;28.00;27.00;;;;;;1541716;76;641;-64
2022/07/19 09:59:46;;;;;;;;;;;28.00;27.40;;;;;;1530986;76;654;-65
2022/07/19 10:01:49;;;;;;;;;;;27.90;26.90;;;;;;1536514;76;1182;-65
2022/07/19 10:03:51;;;;;;;;;;;28.00;27.20;;;;;;1539649;76;654;-65
2022/07/19 10:05:54;;;;;;;;;;;28.00;27.20;;;;;;1531329;76;689;-64
2022/07/19 10:07:56;;;;;;;;;;;28.00;26.70;;;;;;1546378;76;704;-66
2022/07/19 10:09:58;;;;;;;;;;;28.00;27.00;;;;;;1545710;76;668;-63
2022/07/19 10:12:00;;;;;;;;;;;27.90;26.40;;;;;;1529740;76;1156;-63
2022/07/19 10:14:02;;;;;;;;;;;27.90;26.40;;;;;;1548357;76;1946;-64
2022/07/19 10:16:04;;;;;;;;;;;28.00;26.70;;;;;;1544322;76;618;-63
2022/07/19 10:18:12;;;;;;;;;;;28.00;26.40;;;;;;1533376;76;704;-62
2022/07/19 10:20:19;;;;;;;;;;;28.00;26.50;;;;;;1531833;76;777;-64
2022/07/19 10:22:24;;;;;;;;;;;28.00;26.00;;;;;;1538419;76;1133;-64
2022/07/19 10:24:43;;;;;;;;;;;27.90;24.80;;;;;;1530743;76;1456;-64
2022/07/19 10:26:45;;;;;;;;;;;27.90;24.80;;;;;;1537551;76;673;-64
2022/07/19 10:28:47;;;;;;;;;;;28.00;25.10;;;;;;1534791;76;638;-63
2022/07/19 10:30:49;;;;;;;;;;;28.00;25.30;;;;;;1535563;76;686;-64
2022/07/19 10:32:52;;;;;;;;;;;28.00;25.00;;;;;;1533934;76;1114;-65
2022/07/19 10:34:56;;;;;;;;;;;28.00;25.00;;;;;;1526674;76;1943;-64
2022/07/19 10:36:58;;;;;;;;;;;28.00;25.00;;;;;;1537803;76;1673;-64
2022/07/19 10:39:17;;;;;;;;;;;27.90;24.50;;;;;;1529898;76;701;-63
2022/07/19 10:41:28;;;;;;;;;;;28.00;24.80;;;;;;1532040;76;1248;-65
2022/07/19 10:43:30;;;;;;;;;;;28.00;25.00;;;;;;1547632;76;700;-65
2022/07/19 10:45:32;;;;;;;;;;;27.90;23.80;;;;;;1538140;76;630;-64
2022/07/19 10:47:40;;;;;;;;;;;27.90;23.70;;;;;;1531894;76;661;-64
2022/07/19 10:49:45;;;;;;;;;;;27.80;23.20;;;;;;1540222;75;1259;-64
2022/07/19 10:51:47;;;;;;;;;;;27.90;23.30;;;;;;1547239;74;1140;-64
2022/07/19 10:53:51;;;;;;;;;;;27.90;23.60;;;;;;1539117;76;665;-64
2022/07/19 10:56:12;;;;;;;;;;;27.90;23.40;;;;;;1537570;76;1945;-64
2022/07/19 10:58:14;;;;;;;;;;;27.90;23.70;;;;;;1510361;77;1177;-65
2022/07/19 11:00:19;;;;;;;;;;;27.90;23.60;;;;;;1515305;77;743;-64
2022/07/19 11:02:24;;;;;;;;;;;28.00;24.50;;;;;;1515153;76;1153;-64
2022/07/19 11:04:28;;;;;;;;;;;28.00;24.80;;;;;;1523109;76;895;-64
2022/07/19 11:06:30;;;;;;;;;;;27.90;23.90;;;;;;1529917;76;812;-64
2022/07/19 11:08:33;;;;;;;;;;;27.90;23.90;;;;;;1531085;76;635;-64
2022/07/19 11:10:34;;;;;;;;;;;27.90;23.90;;;;;;1529693;76;638;-64
2022/07/19 11:12:37;;;;;;;;;;;27.90;24.00;;;;;;1530122;76;1138;-64
2022/07/19 11:14:45;;;;;;;;;;;27.90;24.00;;;;;;1531207;74;1920;-64
2022/07/19 11:16:46;;;;;;;;;;;28.00;24.70;;;;;;1527772;76;769;-64
2022/07/19 11:18:48;;;;;;;;;;;27.90;24.00;;;;;;1527636;76;671;-63
2022/07/19 11:20:50;;;;;;;;;;;27.90;24.10;;;;;;1528800;76;634;-65
2022/07/19 11:22:52;;;;;;;;;;;28.00;24.90;;;;;;1532376;76;1139;-65
2022/07/19 11:24:54;;;;;;;;;;;28.00;25.10;;;;;;1551413;76;743;-63
2022/07/19 11:26:56;;;;;;;;;;;27.90;24.50;;;;;;1530979;76;697;-64
2022/07/19 11:28:58;;;;;;;;;;;27.90;24.60;;;;;;1540517;74;655;-64
2022/07/19 11:31:00;;;;;;;;;;;27.90;24.50;;;;;;1530898;76;1157;-65
2022/07/19 11:33:02;;;;;;;;;;;28.00;25.10;;;;;;1539286;76;628;-65
2022/07/19 11:35:05;;;;;;;;;;;27.90;24.70;;;;;;1535773;76;1913;-63
2022/07/19 11:37:07;;;;;;;;;;;27.90;24.90;;;;;;1546553;76;729;-65
2022/07/19 11:39:09;;;;;;;;;;;28.00;25.50;;;;;;1531435;76;634;-66
2022/07/19 11:41:14;;;;;;;;;;;28.00;25.30;;;;;;1530529;76;1264;-67
2022/07/19 11:43:16;;;;;;;;;;;28.00;25.50;;;;;;1540812;76;669;-68
2022/07/19 11:45:19;;;;;;;;;;;27.90;25.10;;;;;;1532965;76;697;-67
2022/07/19 11:47:23;;;;;;;;;;;28.00;25.40;;;;;;1526470;76;1489;-65
2022/07/19 11:49:25;;;;;;;;;;;27.90;24.90;;;;;;1546640;76;744;-66
2022/07/19 11:51:27;;;;;;;;;;;28.00;25.20;;;;;;1533765;76;1126;-66
2022/07/19 11:53:29;;;;;;;;;;;27.90;24.80;;;;;;1540210;76;735;-65
2022/07/19 11:55:37;;;;;;;;;;;28.00;25.60;;;;;;1547097;76;1982;-65
2022/07/19 11:57:39;;;;;;;;;;;27.90;24.80;;;;;;1533738;76;1008;-67
2022/07/19 11:59:41;;;;;;;;;;;28.00;25.40;;;;;;1531182;76;727;-66
2022/07/19 12:01:44;;;;;;;;;;;28.00;25.40;;;;;;1550115;74;1128;-65
2022/07/19 12:03:48;;;;;;;;;;;27.90;24.80;;;;;;1534346;76;640;-66
2022/07/19 12:05:57;;;;;;;;;;;27.90;24.80;;;;;;1530942;76;1127;-64
2022/07/19 12:08:00;;;;;;;;;;;27.80;24.80;;;;;;1530388;76;1127;-66
2022/07/19 12:10:02;;;;;;;;;;;28.00;25.60;;;;;;1540216;76;680;-66
2022/07/19 12:12:05;;;;;;;;;;;28.00;25.70;;;;;;1537214;76;1078;-66
2022/07/19 12:14:17;;;;;;;;;;;28.00;25.20;;;;;;1544683;74;1102;-66